createdAt,value
2023-02-02T00:02:00.567Z,-0.20
2023-02-02T00:04:32.453Z,-0.10
2023-02-02T00:07:00.573Z,-0.07
2023-02-02T00:09:30.183Z,-0.05
2023-02-02T00:11:59.028Z,-0.03
2023-02-02T00:14:28.305Z,-0.08
2023-02-02T00:16:56.624Z,-0.03
2023-02-02T00:19:27.019Z,0.02
2023-02-02T00:21:55.250Z,0.09
2023-02-02T00:24:23.205Z,0.12
2023-02-02T00:26:55.942Z,0.12
2023-02-02T00:29:26.194Z,0.13
2023-02-02T00:31:53.713Z,0.18
2023-02-02T00:34:21.931Z,0.13
2023-02-02T00:36:49.734Z,0.00
2023-02-02T00:39:26.224Z,-0.05
2023-02-02T00:41:54.266Z,-0.05
2023-02-02T00:44:43.012Z,-0.10
2023-02-02T00:47:10.039Z,-0.12
2023-02-02T00:49:37.970Z,-0.16
2023-02-02T00:52:05.171Z,-0.19
2023-02-02T00:54:32.923Z,-0.20
2023-02-02T00:56:59.889Z,-0.15
2023-02-02T00:59:27.565Z,-0.16
2023-02-02T01:01:55.009Z,-0.13
2023-02-02T01:04:23.203Z,-0.12
2023-02-02T01:06:50.947Z,-0.10
2023-02-02T01:09:18.691Z,-0.09
2023-02-02T01:11:45.745Z,-0.03
2023-02-02T01:14:13.430Z,-0.07
2023-02-02T01:16:40.546Z,-0.05
2023-02-02T01:19:13.916Z,-0.09
2023-02-02T01:21:41.267Z,-0.10
2023-02-02T01:24:11.173Z,-0.07
2023-02-02T01:26:38.149Z,-0.04
2023-02-02T01:29:05.506Z,-0.04
2023-02-02T01:31:34.591Z,-0.03
2023-02-02T01:34:01.944Z,0.01
2023-02-02T01:36:29.326Z,-0.06
2023-02-02T01:38:56.629Z,-0.05
2023-02-02T01:41:25.758Z,-0.05
2023-02-02T01:43:57.233Z,-0.11
2023-02-02T01:46:30.466Z,-0.21
2023-02-02T01:49:18.039Z,-0.27
2023-02-02T01:51:54.365Z,-0.27
2023-02-02T01:54:26.290Z,-0.33
2023-02-02T01:57:01.095Z,-0.32
2023-02-02T01:59:30.632Z,-0.35
2023-02-02T02:01:58.199Z,-0.42
2023-02-02T02:04:27.751Z,-0.44
2023-02-02T02:06:55.963Z,-0.59
2023-02-02T02:09:24.019Z,-0.57
2023-02-02T02:11:53.945Z,-0.59
2023-02-02T02:14:40.751Z,-0.73
2023-02-02T02:17:45.669Z,-0.66
2023-02-02T02:21:12.809Z,-0.72
2023-02-02T02:24:35.675Z,-0.70
2023-02-02T02:27:26.583Z,-0.69
2023-02-02T02:30:17.125Z,-0.64
2023-02-02T02:33:11.387Z,-0.62
2023-02-02T02:36:07.840Z,-0.68
2023-02-02T02:38:47.706Z,-0.82
2023-02-02T02:41:21.983Z,-0.89
2023-02-02T02:43:58.064Z,-1.03
2023-02-02T02:46:25.867Z,-0.93
2023-02-02T02:48:53.713Z,-0.98
2023-02-02T02:51:50.169Z,-0.96
2023-02-02T02:54:31.770Z,-0.92
2023-02-02T02:57:02.004Z,-0.88
2023-02-02T02:59:48.559Z,-0.92
2023-02-02T03:02:35.010Z,-0.96
2023-02-02T03:05:52.837Z,-1.03
2023-02-02T03:08:35.049Z,-1.08
2023-02-02T03:11:06.749Z,-1.15
2023-02-02T03:13:34.459Z,-1.18
2023-02-02T03:16:02.517Z,-1.22
2023-02-02T03:18:31.537Z,-1.21
2023-02-02T03:21:00.528Z,-1.23
2023-02-02T03:23:28.149Z,-1.14
2023-02-02T03:25:56.395Z,-1.12
2023-02-02T03:28:24.945Z,-1.19
2023-02-02T03:30:55.318Z,-1.22
2023-02-02T03:33:23.027Z,-1.32
2023-02-02T03:35:50.852Z,-1.37
2023-02-02T03:38:20.333Z,-1.33
2023-02-02T03:40:47.812Z,-1.30
2023-02-02T03:43:21.416Z,-1.27
2023-02-02T03:45:49.082Z,-1.30
2023-02-02T03:48:17.035Z,-1.24
2023-02-02T03:50:45.848Z,-1.13
2023-02-02T03:53:12.796Z,-1.10
2023-02-02T03:55:43.690Z,-1.09
2023-02-02T04:00:55.715Z,-1.08
2023-02-02T04:03:23.125Z,-1.13
2023-02-02T04:05:50.938Z,-1.07
2023-02-02T04:08:19.410Z,-1.11
2023-02-02T04:10:47.035Z,-1.07
2023-02-02T04:13:14.342Z,-1.13
2023-02-02T04:15:43.361Z,-1.09
2023-02-02T04:18:10.416Z,-1.11
2023-02-02T04:20:43.456Z,-1.23
2023-02-02T04:23:12.429Z,-1.21
2023-02-02T04:25:43.839Z,-1.21
2023-02-02T04:28:12.298Z,-1.24
2023-02-02T04:30:40.256Z,-1.23
2023-02-02T04:33:08.048Z,-1.26
2023-02-02T04:35:35.612Z,-1.33
2023-02-02T04:38:02.699Z,-1.29
2023-02-02T04:40:30.186Z,-1.23
2023-02-02T04:42:58.751Z,-1.25
2023-02-02T04:45:26.854Z,-1.22
2023-02-02T04:47:56.807Z,-1.19
2023-02-02T04:50:24.570Z,-1.16
2023-02-02T04:52:51.768Z,-1.11
2023-02-02T04:58:13.539Z,-1.13
2023-02-02T05:00:41.468Z,-1.14
2023-02-02T05:03:08.538Z,-1.24
2023-02-02T05:05:36.397Z,-1.12
2023-02-02T05:08:03.643Z,-1.11
2023-02-02T05:10:31.250Z,-1.05
2023-02-02T05:12:58.485Z,-1.03
2023-02-02T05:15:30.575Z,-1.05
2023-02-02T05:17:58.869Z,-0.98
2023-02-02T05:20:33.323Z,-1.05
2023-02-02T05:23:12.381Z,-1.02
2023-02-02T05:25:46.015Z,-0.97
2023-02-02T05:28:13.353Z,-0.87
2023-02-02T05:30:42.109Z,-0.72
2023-02-02T05:35:55.363Z,-0.67
2023-02-02T05:38:23.937Z,-0.56
2023-02-02T05:40:53.617Z,-0.58
2023-02-02T05:43:21.648Z,-0.59
2023-02-02T05:45:50.049Z,-0.53
2023-02-02T05:48:17.194Z,-0.52
2023-02-02T05:50:50.382Z,-0.50
2023-02-02T05:53:20.236Z,-0.44
2023-02-02T05:55:47.674Z,-0.35
2023-02-02T05:58:14.817Z,-0.27
2023-02-02T06:00:42.231Z,-0.30
2023-02-02T06:03:10.012Z,-0.24
2023-02-02T06:05:39.369Z,-0.19
2023-02-02T06:08:06.839Z,-0.12
2023-02-02T06:10:39.641Z,-0.15
2023-02-02T06:13:06.718Z,-0.09
2023-02-02T06:15:38.771Z,-0.07
2023-02-02T06:18:07.282Z,-0.12
2023-02-02T06:20:40.222Z,-0.10
2023-02-02T06:23:07.345Z,-0.12
2023-02-02T06:25:38.114Z,-0.02
2023-02-02T06:28:05.554Z,0.06
2023-02-02T06:30:39.590Z,0.12
2023-02-02T06:33:07.646Z,0.18
2023-02-02T06:35:35.235Z,0.30
2023-02-02T06:38:02.288Z,0.36
2023-02-02T06:40:29.881Z,0.42
2023-02-02T06:42:58.140Z,0.35
2023-02-02T06:45:30.918Z,0.35
2023-02-02T06:51:00.270Z,0.45
2023-02-02T06:53:28.083Z,0.47
2023-02-02T06:56:02.363Z,0.45
2023-02-02T06:58:30.940Z,0.50
2023-02-02T07:01:07.877Z,0.48
2023-02-02T07:03:37.538Z,0.53
2023-02-02T07:06:12.277Z,0.60
2023-02-02T07:08:39.295Z,0.58
2023-02-02T07:11:14.445Z,0.70
2023-02-02T07:13:46.182Z,0.74
2023-02-02T07:16:19.122Z,0.75
2023-02-02T07:18:49.634Z,0.91
2023-02-02T07:21:20.910Z,0.97
2023-02-02T07:23:49.360Z,1.05
2023-02-02T07:26:19.170Z,1.14
2023-02-02T07:28:47.979Z,1.22
2023-02-02T07:31:25.659Z,1.31
2023-02-02T07:33:55.605Z,1.33
2023-02-02T07:36:24.863Z,1.52
2023-02-02T07:39:02.171Z,1.60
2023-02-02T07:41:29.967Z,1.77
2023-02-02T07:43:59.898Z,1.96
2023-02-02T07:46:27.337Z,2.12
2023-02-02T07:48:58.622Z,2.25
2023-02-02T07:54:22.346Z,2.46
2023-02-02T07:56:50.310Z,2.48
2023-02-02T07:59:17.343Z,2.49
2023-02-02T08:01:47.940Z,2.50
2023-02-02T08:04:18.803Z,2.55
2023-02-02T08:06:46.602Z,2.61
2023-02-02T08:09:19.732Z,2.67
2023-02-02T08:11:47.130Z,2.65
2023-02-02T08:14:16.652Z,2.73
2023-02-02T08:16:43.942Z,2.79
2023-02-02T08:19:14.658Z,2.86
2023-02-02T08:21:42.513Z,2.92
2023-02-02T08:24:09.615Z,2.98
2023-02-02T08:26:37.092Z,3.02
2023-02-02T08:29:07.585Z,3.13
2023-02-02T08:31:37.979Z,3.15
2023-02-02T08:34:08.324Z,3.22
2023-02-02T08:36:35.797Z,3.32
2023-02-02T08:39:10.067Z,3.36
2023-02-02T08:41:40.421Z,3.46
2023-02-02T08:44:20.091Z,3.55
2023-02-02T08:46:54.479Z,3.67
2023-02-02T08:49:23.038Z,3.74
2023-02-02T08:51:55.862Z,3.88
2023-02-02T08:54:23.373Z,4.05
2023-02-02T08:56:56.776Z,4.33
2023-02-02T08:59:27.002Z,4.65
2023-02-02T09:01:57.150Z,4.97
2023-02-02T09:04:24.494Z,5.34
2023-02-02T09:06:52.067Z,5.56
2023-02-02T09:09:19.142Z,5.54
2023-02-02T09:11:46.619Z,5.63
2023-02-02T09:14:14.864Z,5.69
2023-02-02T09:16:42.442Z,5.84
2023-02-02T09:19:11.368Z,5.90
2023-02-02T09:21:38.616Z,5.86
2023-02-02T09:24:13.138Z,5.81
2023-02-02T09:26:40.842Z,5.75
2023-02-02T09:29:12.217Z,5.71
2023-02-02T09:31:40.375Z,5.82
2023-02-02T09:34:13.161Z,5.81
2023-02-02T09:36:41.678Z,5.89
2023-02-02T09:42:33.278Z,6.18
2023-02-02T09:45:26.343Z,6.49
2023-02-02T09:48:08.853Z,8.89
2023-02-02T09:51:06.374Z,10.81
2023-02-02T09:54:19.186Z,12.79
2023-02-02T09:56:51.428Z,14.37
2023-02-02T09:59:27.847Z,14.43
2023-02-02T10:01:58.535Z,14.30
2023-02-02T10:04:45.111Z,13.92
2023-02-02T10:07:31.248Z,15.54
2023-02-02T10:10:17.065Z,17.69
2023-02-02T10:12:55.433Z,18.57
2023-02-02T10:16:19.607Z,17.55
2023-02-02T10:19:04.991Z,16.70
2023-02-02T10:21:40.472Z,16.62
2023-02-02T10:24:17.959Z,17.50
2023-02-02T10:26:52.490Z,15.81
2023-02-02T10:29:48.533Z,16.06
2023-02-02T10:32:26.711Z,15.98
2023-02-02T10:35:11.042Z,17.28
2023-02-02T10:38:07.438Z,18.46
2023-02-02T10:40:49.705Z,18.46
2023-02-02T10:43:48.931Z,17.86
2023-02-02T10:46:26.254Z,17.32
2023-02-02T10:49:17.238Z,17.35
2023-02-02T10:51:55.260Z,17.35
2023-02-02T10:54:55.345Z,16.87
2023-02-02T10:57:32.889Z,16.62
2023-02-02T11:00:26.170Z,17.02
2023-02-02T11:02:54.206Z,16.67
2023-02-02T11:05:47.516Z,16.47
2023-02-02T11:08:27.975Z,16.88
2023-02-02T11:10:58.735Z,17.21
2023-02-02T11:13:33.022Z,17.55
2023-02-02T11:16:15.868Z,18.02
2023-02-02T11:18:45.566Z,17.58
2023-02-02T11:21:18.194Z,16.54
2023-02-02T11:24:16.778Z,15.59
2023-02-02T11:26:50.947Z,15.76
2023-02-02T11:29:41.000Z,15.65
2023-02-02T11:32:35.705Z,14.85
2023-02-02T11:35:25.761Z,15.51
2023-02-02T11:38:14.594Z,17.27
2023-02-02T11:40:46.010Z,18.35
2023-02-02T11:43:21.027Z,18.66
2023-02-02T11:46:02.596Z,18.81
2023-02-02T11:48:34.584Z,17.12
2023-02-02T11:51:02.497Z,16.97
2023-02-02T11:53:34.350Z,14.99
2023-02-02T11:56:25.734Z,13.39
2023-02-02T11:59:04.133Z,13.03
2023-02-02T12:01:39.823Z,12.65
2023-02-02T12:04:17.990Z,12.17
2023-02-02T12:06:45.895Z,12.02
2023-02-02T12:09:23.184Z,11.07
2023-02-02T12:11:56.197Z,10.49
2023-02-02T12:14:36.090Z,10.19
2023-02-02T12:17:24.792Z,10.43
2023-02-02T12:20:16.080Z,10.51
2023-02-02T12:22:55.022Z,10.36
2023-02-02T12:25:54.548Z,10.07
2023-02-02T12:28:58.769Z,9.29
2023-02-02T12:31:47.105Z,9.65
2023-02-02T12:34:36.878Z,10.08
2023-02-02T12:37:28.015Z,10.20
2023-02-02T12:40:20.367Z,10.50
2023-02-02T12:43:45.118Z,10.16
2023-02-02T12:46:42.181Z,9.87
2023-02-02T12:49:31.207Z,9.23
2023-02-02T12:52:01.367Z,8.77
2023-02-02T12:55:21.356Z,8.46
2023-02-02T12:58:26.232Z,8.08
2023-02-02T13:01:02.694Z,8.61
2023-02-02T13:04:14.872Z,8.52
2023-02-02T13:06:57.692Z,8.00
2023-02-02T13:12:38.006Z,7.59
2023-02-02T13:15:09.504Z,7.65
2023-02-02T13:21:06.160Z,7.19
2023-02-02T13:23:43.479Z,7.05
2023-02-02T13:26:35.565Z,7.11
2023-02-02T13:29:24.881Z,7.77
2023-02-02T13:32:23.487Z,7.76
2023-02-02T13:35:24.413Z,7.50
2023-02-02T13:37:51.730Z,7.34
2023-02-02T13:40:35.989Z,7.12
2023-02-02T13:43:36.424Z,7.03
2023-02-02T13:46:07.040Z,6.94
2023-02-02T13:48:34.206Z,6.82
2023-02-02T13:51:23.656Z,6.71
2023-02-02T13:54:10.661Z,6.60
2023-02-02T13:57:05.071Z,6.55
2023-02-02T13:59:53.791Z,6.47
2023-02-02T14:02:33.704Z,6.38
2023-02-02T14:05:17.098Z,6.36
2023-02-02T14:08:03.313Z,6.31
2023-02-02T14:10:34.675Z,6.23
2023-02-02T14:13:34.187Z,6.12
2023-02-02T14:16:07.106Z,5.85
2023-02-02T14:18:50.293Z,5.82
2023-02-02T14:21:42.791Z,5.75
2023-02-02T14:24:29.047Z,5.66
2023-02-02T14:27:01.796Z,5.54
2023-02-02T14:29:35.063Z,5.56
2023-02-02T14:32:24.290Z,5.44
2023-02-02T14:34:55.429Z,5.42
2023-02-02T14:37:28.741Z,5.34
2023-02-02T14:40:10.998Z,5.24
2023-02-02T14:42:58.248Z,5.17
2023-02-02T14:45:31.085Z,5.08
2023-02-02T14:48:17.365Z,5.00
2023-02-02T14:51:20.165Z,4.88
2023-02-02T14:53:56.277Z,4.75
2023-02-02T14:56:42.818Z,4.75
2023-02-02T14:59:23.197Z,4.60
2023-02-02T15:02:14.463Z,4.56
2023-02-02T15:04:42.740Z,4.47
2023-02-02T15:07:22.698Z,4.37
2023-02-02T15:09:56.762Z,4.26
2023-02-02T15:12:34.365Z,4.09
2023-02-02T15:15:41.085Z,4.03
2023-02-02T15:18:26.821Z,3.97
2023-02-02T15:21:00.098Z,3.92
2023-02-02T15:23:36.214Z,3.91
2023-02-02T15:26:25.036Z,3.76
2023-02-02T15:29:01.772Z,3.72
2023-02-02T15:31:49.802Z,3.58
2023-02-02T15:34:26.167Z,3.58
2023-02-02T15:37:00.361Z,3.52
2023-02-02T15:43:07.494Z,3.48
2023-02-02T15:45:35.669Z,3.49
2023-02-02T15:48:09.127Z,3.46
2023-02-02T15:50:46.664Z,3.46
2023-02-02T15:53:25.355Z,3.52
2023-02-02T15:55:54.423Z,3.46
2023-02-02T15:58:33.175Z,3.53
2023-02-02T16:01:16.113Z,3.52
2023-02-02T16:03:53.389Z,3.51
2023-02-02T16:06:36.182Z,3.51
2023-02-02T16:09:07.473Z,3.49
2023-02-02T16:11:42.803Z,3.47
2023-02-02T16:14:17.861Z,3.43
2023-02-02T16:16:47.576Z,3.33
2023-02-02T16:19:20.915Z,3.34
2023-02-02T16:22:00.320Z,3.28
2023-02-02T16:24:34.803Z,3.16
2023-02-02T16:27:06.440Z,3.07
2023-02-02T16:29:36.833Z,2.97
2023-02-02T16:32:04.938Z,2.95
2023-02-02T16:34:39.973Z,2.84
2023-02-02T16:37:24.702Z,2.71
2023-02-02T16:39:52.119Z,2.62
2023-02-02T16:42:34.197Z,2.55
2023-02-02T16:45:07.778Z,2.46
2023-02-02T16:47:38.075Z,2.45
2023-02-02T16:50:37.701Z,2.35
2023-02-02T16:53:22.919Z,2.31
2023-02-02T16:55:51.842Z,2.26
2023-02-02T16:58:23.162Z,2.19
2023-02-02T17:01:14.546Z,2.20
2023-02-02T17:03:55.196Z,2.13
2023-02-02T17:06:45.773Z,2.05
2023-02-02T17:10:04.625Z,1.95
2023-02-02T17:15:18.855Z,1.85
2023-02-02T17:18:43.584Z,1.78
2023-02-02T17:21:21.519Z,1.72
2023-02-02T17:23:51.835Z,1.45
2023-02-02T17:26:52.521Z,1.26
2023-02-02T17:29:21.747Z,1.28
2023-02-02T17:34:31.062Z,1.23
2023-02-02T17:36:58.423Z,1.11
2023-02-02T17:39:27.331Z,1.03
2023-02-02T17:41:54.375Z,1.13
2023-02-02T17:44:21.939Z,1.05
2023-02-02T17:46:49.324Z,0.96
2023-02-02T17:49:29.058Z,0.92
2023-02-02T17:51:56.184Z,0.84
2023-02-02T17:54:23.701Z,0.63
2023-02-02T17:56:50.785Z,0.67
2023-02-02T17:59:18.217Z,0.66
2023-02-02T18:01:45.814Z,0.59
2023-02-02T18:04:15.726Z,0.45
2023-02-02T18:06:42.768Z,0.49
2023-02-02T18:09:12.770Z,0.44
2023-02-02T18:11:42.431Z,0.45
2023-02-02T18:17:08.478Z,0.42
2023-02-02T18:20:06.543Z,0.36
2023-02-02T18:22:34.349Z,0.21
2023-02-02T18:25:04.448Z,0.16
2023-02-02T18:27:32.492Z,0.18
2023-02-02T18:30:01.969Z,0.06
2023-02-02T18:32:29.456Z,-0.01
2023-02-02T18:34:56.899Z,0.01
2023-02-02T18:37:25.952Z,-0.05
2023-02-02T18:42:52.099Z,-0.06
2023-02-02T18:45:22.318Z,-0.06
2023-02-02T18:47:49.759Z,-0.05
2023-02-02T18:50:17.464Z,-0.08
2023-02-02T18:52:44.585Z,-0.05
2023-02-02T18:55:12.364Z,-0.08
2023-02-02T18:57:40.640Z,-0.10
2023-02-02T19:00:09.275Z,-0.12
2023-02-02T19:02:36.681Z,-0.04
2023-02-02T19:05:22.656Z,-0.05
2023-02-02T19:08:06.070Z,-0.06
2023-02-02T19:10:46.109Z,-0.15
2023-02-02T19:13:19.500Z,-0.14
2023-02-02T19:15:48.516Z,-0.21
2023-02-02T19:18:36.379Z,-0.31
2023-02-02T19:21:24.091Z,-0.36
2023-02-02T19:23:58.513Z,-0.41
2023-02-02T19:26:45.148Z,-0.36
2023-02-02T19:29:31.597Z,-0.43
2023-02-02T19:32:33.765Z,-0.48
2023-02-02T19:35:02.982Z,-0.59
2023-02-02T19:37:38.841Z,-0.60
2023-02-02T19:40:08.863Z,-0.48
2023-02-02T19:42:48.021Z,-0.60
2023-02-02T19:45:21.439Z,-0.63
2023-02-02T19:47:51.385Z,-0.61
2023-02-02T19:50:21.858Z,-0.65
2023-02-02T19:52:53.535Z,-0.60
2023-02-02T19:55:26.558Z,-0.63
2023-02-02T19:58:01.178Z,-0.56
2023-02-02T20:00:31.902Z,-0.44
2023-02-02T20:03:10.908Z,-0.45
2023-02-02T20:05:45.081Z,-0.55
2023-02-02T20:08:26.442Z,-0.45
2023-02-02T20:11:03.343Z,-0.72
2023-02-02T20:13:48.534Z,-0.85
2023-02-02T20:19:36.184Z,-0.90
2023-02-02T20:22:03.577Z,-0.96
2023-02-02T20:24:42.351Z,-1.08
2023-02-02T20:27:21.453Z,-0.96
2023-02-02T20:29:53.203Z,-1.01
2023-02-02T20:32:26.346Z,-0.97
2023-02-02T20:34:58.944Z,-0.99
2023-02-02T20:37:31.600Z,-1.09
2023-02-02T20:40:17.436Z,-1.05
2023-02-02T20:42:49.358Z,-1.10
2023-02-02T20:45:30.448Z,-1.14
2023-02-02T20:51:06.944Z,-1.07
2023-02-02T20:53:48.152Z,-1.05
2023-02-02T20:56:15.758Z,-1.01
2023-02-02T20:58:45.335Z,-0.88
2023-02-02T21:01:14.734Z,-0.74
2023-02-02T21:03:41.967Z,-0.57
2023-02-02T21:08:53.403Z,-0.61
2023-02-02T21:11:22.602Z,-0.57
2023-02-02T21:13:50.383Z,-0.53
2023-02-02T21:16:22.083Z,-0.41
2023-02-02T21:18:57.617Z,-0.37
2023-02-02T21:21:25.339Z,-0.35
2023-02-02T21:23:58.996Z,-0.48
2023-02-02T21:26:32.304Z,-0.50
2023-02-02T21:28:59.520Z,-0.54
2023-02-02T21:31:35.602Z,-0.63
2023-02-02T21:34:04.919Z,-0.78
2023-02-02T21:36:44.373Z,-0.79
2023-02-02T21:39:34.304Z,-0.74
2023-02-02T21:42:17.589Z,-0.91
2023-02-02T21:44:46.334Z,-0.93
2023-02-02T21:47:29.871Z,-0.86
2023-02-02T21:50:20.145Z,-0.94
2023-02-02T21:53:24.275Z,-0.97
2023-02-02T21:56:03.042Z,-1.04
2023-02-02T21:58:40.150Z,-1.11
2023-02-02T22:01:48.113Z,-1.16
2023-02-02T22:04:19.228Z,-1.22
2023-02-02T22:07:15.226Z,-1.27
2023-02-02T22:09:43.763Z,-1.33
2023-02-02T22:12:23.665Z,-1.56
2023-02-02T22:14:55.300Z,-1.50
2023-02-02T22:17:27.215Z,-1.61
2023-02-02T22:20:02.892Z,-1.63
2023-02-02T22:22:49.240Z,-1.64
2023-02-02T22:25:16.281Z,-1.69
2023-02-02T22:27:51.049Z,-1.82
2023-02-02T22:30:35.618Z,-1.73
2023-02-02T22:33:04.447Z,-1.81
2023-02-02T22:38:59.447Z,-1.90
2023-02-02T22:41:34.391Z,-1.92
2023-02-02T22:44:01.804Z,-1.85
2023-02-02T22:49:25.460Z,-1.84
2023-02-02T22:51:54.366Z,-1.87
2023-02-02T22:54:23.771Z,-1.94
2023-02-02T22:56:51.087Z,-1.96
2023-02-02T22:59:18.215Z,-1.95
2023-02-02T23:01:45.610Z,-1.98
2023-02-02T23:04:13.011Z,-2.01
2023-02-02T23:06:40.748Z,-1.97
2023-02-02T23:09:07.757Z,-1.91
2023-02-02T23:11:35.254Z,-1.92
2023-02-02T23:14:02.422Z,-1.94
2023-02-02T23:16:29.775Z,-2.12
2023-02-02T23:18:57.361Z,-2.20
2023-02-02T23:21:26.815Z,-2.16
2023-02-02T23:23:56.626Z,-2.32
2023-02-02T23:26:25.898Z,-2.33
2023-02-02T23:28:53.161Z,-2.43
2023-02-02T23:31:20.813Z,-2.39
2023-02-02T23:33:47.948Z,-2.50
2023-02-02T23:36:15.339Z,-2.45
2023-02-02T23:38:45.077Z,-2.55
2023-02-02T23:41:12.878Z,-2.51
2023-02-02T23:43:42.903Z,-2.49
2023-02-02T23:46:12.780Z,-2.50
2023-02-02T23:48:39.825Z,-2.53
2023-02-02T23:51:08.977Z,-2.51
2023-02-02T23:53:36.154Z,-2.58
2023-02-02T23:56:03.537Z,-2.55
2023-02-02T23:58:32.271Z,-2.64
